Time;durP1;ratioP1;P1;durP2;ratioP2;P2;SDS_P1;SDS_P2;PMS_P1;PMS_P2;Temp;Humidity;BMP_temperature;BMP_pressure;BME280_temperature;BME280_humidity;BME280_pressure;Samples;Min_cycle;Max_cycle;Signal;HPM_P1;HPM_P2
2023/07/06 00:01:11;;;;;;;3.03;1.63;;;15.20;99.90;;;;;;5029505;28;20458;-85
2023/07/06 00:03:38;;;;;;;2.53;1.57;;;15.20;99.90;;;;;;5047693;28;20443;-86
2023/07/06 00:06:08;;;;;;;3.67;1.40;;;15.20;99.90;;;;;;5033710;28;21526;-85
2023/07/06 00:08:34;;;;;;;1.90;1.40;;;;;;;;;;5029580;28;20588;-85
2023/07/06 00:11:00;;;;;;;1.80;1.53;;;;;;;;;;5030466;28;20447;-85
2023/07/06 00:13:26;;;;;;;2.30;1.57;;;;;;;;;;5032595;28;20435;-85
2023/07/06 00:15:52;;;;;;;3.90;1.90;;;;;;;;;;5029696;28;20439;-85
2023/07/06 00:18:22;;;;;;;8.00;2.40;;;;;;;;;;5029978;28;20459;-85
2023/07/06 00:20:49;;;;;;;1.47;1.10;;;15.30;99.90;;;;;;5026763;28;20497;-86
2023/07/06 00:23:15;;;;;;;4.53;1.80;;;;;;;;;;5038644;28;20522;-85
2023/07/06 00:25:41;;;;;;;3.70;1.80;;;;;;;;;;5051525;28;20573;-86
2023/07/06 00:28:08;;;;;;;2.20;1.70;;;15.30;99.90;;;;;;5032583;28;20845;-86
2023/07/06 00:30:53;;;;;;;4.67;1.97;;;;;;;;;;5027350;28;20439;-86
2023/07/06 00:33:20;;;;;;;3.50;1.60;;;15.20;99.90;;;;;;5029496;28;20446;-87
2023/07/06 00:35:46;;;;;;;2.10;1.53;;;;;;;;;;5028409;28;20452;-85
2023/07/06 00:38:15;;;;;;;2.73;1.60;;;15.40;99.90;;;;;;5018297;28;20482;-87
2023/07/06 00:40:43;;;;;;;2.27;1.83;;;15.40;99.90;;;;;;5028776;28;20570;-86
2023/07/06 00:43:15;;;;;;;5.17;3.13;;;15.30;99.90;;;;;;5040682;28;20444;-85
2023/07/06 00:45:42;;;;;;;4.07;2.33;;;15.30;99.90;;;;;;5023364;28;20439;-85
2023/07/06 00:48:21;;;;;;;3.90;2.47;;;15.30;99.90;;;;;;5031821;28;20466;-85
2023/07/06 00:50:52;;;;;;;2.53;2.00;;;15.30;99.90;;;;;;5034461;28;20470;-85
2023/07/06 00:53:19;;;;;;;2.23;1.67;;;15.40;99.90;;;;;;5034541;28;20450;-86
2023/07/06 00:55:45;;;;;;;5.03;1.90;;;;;;;;;;5033922;28;20445;-86
2023/07/06 00:58:22;;;;;;;4.00;2.03;;;15.40;99.90;;;;;;5028493;28;20454;-86
2023/07/06 01:00:48;;;;;;;5.60;2.47;;;;;;;;;;5022386;28;20463;-85
2023/07/06 01:03:19;;;;;;;3.57;2.63;;;15.30;99.90;;;;;;5040026;28;20427;-84
2023/07/06 01:05:45;;;;;;;2.97;2.03;;;;;;;;;;5027138;28;20463;-84
2023/07/06 01:08:15;;;;;;;2.27;1.43;;;15.30;99.90;;;;;;5026188;28;20470;-85
2023/07/06 01:10:43;;;;;;;3.00;1.57;;;;;;;;;;5029553;28;20465;-87
2023/07/06 01:13:09;;;;;;;2.40;1.63;;;;;;;;;;5030757;28;20522;-85
2023/07/06 01:15:41;;;;;;;3.93;1.87;;;15.30;99.90;;;;;;5034378;28;20435;-86
2023/07/06 01:18:19;;;;;;;4.43;2.03;;;15.20;99.90;;;;;;5019983;28;20471;-85
2023/07/06 01:20:56;;;;;;;5.73;2.50;;;15.20;99.90;;;;;;5026453;28;20455;-85
2023/07/06 01:24:06;;;;;;;3.80;1.90;;;15.20;99.90;;;;;;5032549;28;22756;-85
2023/07/06 01:27:24;;;;;;;3.67;2.37;;;15.20;99.90;;;;;;5034449;28;20428;-87
2023/07/06 01:30:08;;;;;;;3.90;2.20;;;15.20;99.90;;;;;;5038201;28;20487;-86
2023/07/06 01:32:39;;;;;;;1.90;1.47;;;15.10;99.90;;;;;;5037691;28;20574;-85
2023/07/06 01:35:39;;;;;;;3.53;2.63;;;15.00;99.90;;;;;;5033569;28;20939;-86
2023/07/06 01:38:05;;;;;;;2.90;1.90;;;14.80;99.90;;;;;;5029157;28;22027;-86
2023/07/06 01:40:33;;;;;;;2.80;2.27;;;;;;;;;;5045901;28;20463;-87
2023/07/06 01:42:59;;;;;;;2.10;1.53;;;14.70;99.90;;;;;;5043422;28;20466;-87
2023/07/06 01:45:25;;;;;;;1.63;1.33;;;;;;;;;;5041776;28;20565;-85
2023/07/06 01:48:01;;;;;;;4.27;1.63;;;14.80;99.90;;;;;;5042629;28;21447;-87
2023/07/06 01:50:44;;;;;;;3.93;2.03;;;14.80;99.90;;;;;;5040098;28;20440;-85
2023/07/06 01:53:37;;;;;;;3.00;1.37;;;14.80;99.90;;;;;;5055374;28;20467;-85
2023/07/06 01:56:17;;;;;;;3.63;2.00;;;14.70;99.90;;;;;;5040015;28;20459;-86
2023/07/06 01:58:52;;;;;;;2.20;1.50;;;14.80;99.90;;;;;;5031307;28;20455;-85
2023/07/06 02:01:25;;;;;;;3.10;2.00;;;14.70;99.90;;;;;;5029339;28;20513;-86
2023/07/06 02:03:51;;;;;;;3.10;1.60;;;;;;;;;;5032981;28;20431;-85
2023/07/06 02:06:18;;;;;;;3.53;1.90;;;14.70;99.90;;;;;;5033577;28;20423;-85
2023/07/06 02:08:44;;;;;;;1.57;1.43;;;14.80;99.90;;;;;;5035293;28;21847;-84
2023/07/06 02:11:10;;;;;;;2.93;1.90;;;14.80;99.90;;;;;;5033877;28;21006;-85
2023/07/06 02:13:36;;;;;;;1.97;1.57;;;14.70;99.90;;;;;;5036679;28;20189;-86
2023/07/06 02:16:06;;;;;;;3.63;1.83;;;;;;;;;;5032741;28;20814;-86
2023/07/06 02:18:33;;;;;;;5.17;2.73;;;14.90;99.90;;;;;;5036373;28;20447;-85
2023/07/06 02:21:01;;;;;;;2.67;1.30;;;14.90;99.90;;;;;;5030872;28;20463;-86
2023/07/06 02:23:26;;;;;;;3.50;1.80;;;14.90;99.90;;;;;;5028496;28;20501;-86
2023/07/06 02:25:53;;;;;;;2.70;1.53;;;;;;;;;;5032907;28;20439;-86
2023/07/06 02:28:21;;;;;;;3.10;1.70;;;;;;;;;;5036988;28;21065;-87
2023/07/06 02:30:48;;;;;;;4.30;1.93;;;;;;;;;;5035005;28;20471;-87
2023/07/06 02:33:16;;;;;;;3.07;1.53;;;14.20;99.90;;;;;;5036244;28;20427;-86
2023/07/06 02:35:42;;;;;;;3.03;1.80;;;;;;;;;;5030446;28;20435;-85
2023/07/06 02:38:08;;;;;;;2.80;1.65;;;;;;;;;;5016450;28;22643;-86
2023/07/06 02:40:35;;;;;;;2.20;1.50;;;13.90;99.90;;;;;;5041459;28;20213;-84
2023/07/06 02:43:01;;;;;;;3.43;1.90;;;;;;;;;;5030879;28;20431;-85
2023/07/06 02:45:28;;;;;;;5.30;1.40;;;13.90;99.90;;;;;;5029370;28;20444;-87
2023/07/06 02:47:54;;;;;;;4.45;1.50;;;;;;;;;;5029702;28;21903;-86
2023/07/06 02:50:20;;;;;;;2.40;2.00;;;13.70;99.90;;;;;;5047110;28;20686;-86
2023/07/06 02:52:46;;;;;;;4.47;1.50;;;;;;;;;;5034707;28;20477;-86
2023/07/06 02:55:11;;;;;;;2.20;1.60;;;13.60;99.90;;;;;;5033730;28;20441;-87
2023/07/06 02:57:40;;;;;;;2.33;1.60;;;;;;;;;;5041538;28;20462;-87
2023/07/06 03:00:13;;;;;;;3.03;1.63;;;13.60;99.90;;;;;;5038100;28;20205;-86
2023/07/06 03:02:39;;;;;;;2.30;1.77;;;13.50;99.90;;;;;;5040442;28;20424;-85
2023/07/06 03:05:05;;;;;;;2.30;1.37;;;13.60;99.90;;;;;;5030716;28;20466;-85
2023/07/06 03:07:34;;;;;;;2.93;1.50;;;;;;;;;;5040156;28;20177;-86
2023/07/06 03:10:01;;;;;;;2.25;1.50;;;13.50;99.90;;;;;;5041593;28;20437;-85
2023/07/06 03:12:30;;;;;;;4.70;2.28;;;13.50;99.90;;;;;;5030964;28;20816;-86
2023/07/06 03:14:57;;;;;;;5.15;1.75;;;13.40;99.90;;;;;;5040419;28;20192;-88
2023/07/06 03:17:23;;;;;;;2.97;1.80;;;;;;;;;;5038768;28;20284;-85
2023/07/06 03:19:51;;;;;;;2.33;1.50;;;;;;;;;;5033899;28;20473;-84
2023/07/06 03:22:17;;;;;;;2.90;1.92;;;13.50;99.90;;;;;;5041400;28;20486;-86
2023/07/06 03:24:44;;;;;;;2.73;1.13;;;13.50;99.90;;;;;;5042695;28;20268;-86
2023/07/06 03:27:10;;;;;;;5.87;1.70;;;13.50;99.90;;;;;;5043925;28;20216;-86
2023/07/06 03:29:36;;;;;;;4.03;2.22;;;;;;;;;;5043542;28;20536;-87
2023/07/06 03:32:03;;;;;;;8.00;1.60;;;13.40;99.90;;;;;;5048023;28;20701;-87
2023/07/06 03:34:29;;;;;;;5.18;1.52;;;;;;;;;;5042718;28;20467;-87
2023/07/06 03:36:55;;;;;;;5.27;2.20;;;;;;;;;;5043642;28;20208;-85
2023/07/06 03:39:21;;;;;;;1.80;1.40;;;;;;;;;;5046834;28;20838;-86
2023/07/06 03:41:46;;;;;;;7.27;1.80;;;;;;;;;;5047438;28;20467;-83
2023/07/06 03:44:12;;;;;;;4.20;1.90;;;12.80;99.90;;;;;;5048676;28;20503;-85
2023/07/06 03:46:38;;;;;;;4.83;1.97;;;12.80;99.90;;;;;;5041036;28;20462;-85
2023/07/06 03:49:05;;;;;;;3.27;1.70;;;12.90;99.90;;;;;;5040099;28;20205;-85
2023/07/06 03:51:31;;;;;;;1.95;1.73;;;12.90;99.90;;;;;;5038780;28;20276;-86
2023/07/06 03:53:57;;;;;;;3.55;1.90;;;;;;;;;;5039673;28;20264;-86
2023/07/06 03:56:27;;;;;;;5.43;1.87;;;13.20;99.90;;;;;;5039635;28;20281;-84
2023/07/06 03:58:54;;;;;;;2.97;1.73;;;13.30;99.90;;;;;;5036223;28;20806;-86
2023/07/06 04:01:20;;;;;;;2.80;1.65;;;13.30;99.90;;;;;;5049177;28;20193;-84
2023/07/06 04:03:45;;;;;;;4.57;1.87;;;13.40;99.90;;;;;;5036640;28;20754;-86
2023/07/06 04:06:11;;;;;;;2.03;1.60;;;;;;;;;;5029525;28;20272;-85
2023/07/06 04:08:37;;;;;;;5.75;1.60;;;13.70;99.90;;;;;;5032417;28;22228;-86
2023/07/06 04:11:04;;;;;;;4.77;2.00;;;;;;;;;;5031851;28;20181;-86
2023/07/06 04:13:30;;;;;;;3.33;1.80;;;;;;;;;;5027774;28;20662;-85
2023/07/06 04:15:55;;;;;;;4.70;2.77;;;14.20;99.90;;;;;;5026321;28;20203;-85
2023/07/06 04:18:21;;;;;;;3.30;2.30;;;14.40;99.90;;;;;;5036785;28;20458;-87
2023/07/06 04:20:48;;;;;;;4.90;2.30;;;;;;;;;;5027378;28;20367;-83
2023/07/06 04:23:15;;;;;;;2.80;1.63;;;;;;;;;;5030281;28;20269;-85
2023/07/06 04:25:43;;;;;;;4.80;2.10;;;16.40;99.90;;;;;;5029504;28;21217;-85
2023/07/06 04:28:11;;;;;;;2.43;2.23;;;17.60;99.90;;;;;;5033435;28;20539;-86
2023/07/06 04:30:39;;;;;;;2.90;2.30;;;19.40;99.90;;;;;;5050818;28;20439;-86
2023/07/06 04:33:06;;;;;;;11.40;2.70;;;;;;;;;;5033848;28;20450;-85
2023/07/06 04:35:33;;;;;;;3.93;2.17;;;;;;;;;;5032472;28;20540;-84
2023/07/06 04:38:03;;;;;;;5.93;2.20;;;23.90;99.90;;;;;;5024776;28;20473;-86
2023/07/06 04:40:29;;;;;;;3.57;2.13;;;24.00;99.20;;;;;;5024888;28;20605;-85
2023/07/06 04:42:55;;;;;;;5.50;2.43;;;;;;;;;;5028559;28;20443;-85
2023/07/06 04:45:26;;;;;;;4.97;2.63;;;22.30;99.90;;;;;;5027138;28;20562;-85
2023/07/06 04:47:53;;;;;;;3.43;2.50;;;;;;;;;;5028613;28;20513;-86
2023/07/06 04:50:22;;;;;;;5.00;2.50;;;24.80;98.00;;;;;;5023217;28;20443;-86
2023/07/06 04:52:55;;;;;;;3.40;2.60;;;26.50;96.00;;;;;;5026081;28;21066;-85
2023/07/06 04:55:22;;;;;;;3.33;3.03;;;;;;;;;;5023104;28;20478;-85
2023/07/06 04:57:54;;;;;;;9.03;2.80;;;30.40;85.90;;;;;;5030306;28;20491;-84
2023/07/06 05:00:24;;;;;;;3.73;2.20;;;;;;;;;;5027939;28;20465;-84
2023/07/06 05:02:51;;;;;;;3.50;2.17;;;;;;;;;;5029682;28;20446;-85
2023/07/06 05:05:18;;;;;;;2.97;2.20;;;;;;;;;;5030434;28;20521;-85
2023/07/06 05:07:46;;;;;;;3.70;2.73;;;;;;;;;;5027738;28;20419;-84
2023/07/06 05:10:14;;;;;;;3.70;2.77;;;31.60;56.50;;;;;;5053302;28;20431;-86
2023/07/06 05:12:40;;;;;;;3.63;2.87;;;;;;;;;;5029099;28;20439;-86
2023/07/06 05:15:06;;;;;;;5.20;2.70;;;32.40;59.20;;;;;;5043873;28;20485;-85
2023/07/06 05:17:32;;;;;;;4.20;2.90;;;;;;;;;;5038979;28;20443;-87
2023/07/06 05:19:58;;;;;;;6.73;3.17;;;;;;;;;;5035229;28;21024;-88
2023/07/06 05:22:25;;;;;;;3.67;3.37;;;;;;;;;;5037581;28;20994;-86
2023/07/06 05:24:51;;;;;;;5.67;4.13;;;33.40;63.40;;;;;;5036824;28;20516;-87
2023/07/06 05:27:17;;;;;;;5.17;3.93;;;32.50;49.20;;;;;;5040450;28;20432;-86
2023/07/06 05:29:43;;;;;;;5.03;3.60;;;;;;;;;;5037998;28;20484;-86
2023/07/06 05:32:10;;;;;;;3.73;3.43;;;;;;;;;;5034785;28;21038;-85
2023/07/06 05:34:36;;;;;;;3.50;3.30;;;;;;;;;;5028745;28;20444;-86
2023/07/06 05:37:02;;;;;;;4.50;3.40;;;29.10;54.20;;;;;;5038554;28;20439;-86
2023/07/06 05:39:28;;;;;;;3.90;2.80;;;;;;;;;;5039640;28;21086;-85
2023/07/06 05:41:54;;;;;;;3.70;3.20;;;;;;;;;;5038495;28;20436;-85
2023/07/06 05:44:20;;;;;;;3.53;3.20;;;;;;;;;;5043188;28;20421;-85
2023/07/06 05:46:46;;;;;;;4.07;2.73;;;;;;;;;;5037649;28;20437;-85
2023/07/06 05:49:12;;;;;;;5.40;3.40;;;;;;;;;;5034899;28;20485;-86
2023/07/06 05:51:38;;;;;;;4.87;3.03;;;;;;;;;;5030283;28;20940;-86
2023/07/06 05:54:04;;;;;;;3.43;3.23;;;;;;;;;;5031701;28;20434;-87
2023/07/06 05:56:31;;;;;;;5.70;4.97;;;36.90;42.30;;;;;;5025897;28;20433;-87
2023/07/06 05:58:59;;;;;;;5.27;4.70;;;;;;;;;;5032275;28;20457;-86
2023/07/06 06:01:26;;;;;;;5.73;5.33;;;;;;;;;;5031761;28;20830;-86
2023/07/06 06:03:52;;;;;;;5.20;4.90;;;;;;;;;;5047473;28;20813;-88
2023/07/06 06:06:18;;;;;;;6.30;5.90;;;;;;;;;;5033348;28;20811;-84
2023/07/06 06:08:44;;;;;;;7.53;7.03;;;;;;;;;;5033330;28;20485;-87
2023/07/06 06:11:10;;;;;;;7.27;6.77;;;;;;;;;;5031547;28;20488;-85
2023/07/06 06:13:36;;;;;;;7.47;7.07;;;;;;;;;;5032429;28;20427;-87
2023/07/06 06:16:03;;;;;;;7.93;7.40;;;;;;;;;;5032348;28;20858;-87
2023/07/06 06:18:29;;;;;;;6.97;6.57;;;;;;;;;;5038848;28;20204;-87
2023/07/06 06:20:58;;;;;;;7.80;7.40;;;;;;;;;;5044434;28;20469;-86
2023/07/06 06:23:24;;;;;;;7.93;7.43;;;;;;;;;;5025172;28;20442;-87
2023/07/06 06:25:50;;;;;;;8.37;7.97;;;;;;;;;;5020989;28;20427;-87
2023/07/06 06:28:16;;;;;;;8.10;7.37;;;;;;;;;;5031347;28;20220;-85
2023/07/06 06:30:42;;;;;;;8.47;7.70;;;;;;;;;;5052564;28;20477;-87
2023/07/06 06:33:08;;;;;;;7.47;7.07;;;;;;;;;;5038934;28;20438;-85
2023/07/06 06:35:34;;;;;;;7.90;7.30;;;;;;;;;;5032202;28;20423;-85
2023/07/06 06:38:05;;;;;;;9.10;8.60;;;42.10;26.80;;;;;;5027161;28;21302;-86
2023/07/06 06:40:33;;;;;;;7.60;7.20;;;40.00;27.20;;;;;;5034955;28;20454;-88
2023/07/06 06:43:00;;;;;;;8.87;8.00;;;;;;;;;;5035876;28;20427;-87
2023/07/06 06:45:26;;;;;;;7.57;7.17;;;;;;;;;;5049911;28;20439;-87
2023/07/06 06:47:52;;;;;;;8.20;7.50;;;;;;;;;;5038490;28;20433;-86
2023/07/06 06:50:20;;;;;;;7.97;7.57;;;;;;;;;;5037370;28;20438;-88
2023/07/06 06:52:46;;;;;;;8.03;7.53;;;41.60;26.20;;;;;;5035027;28;20441;-86
2023/07/06 06:55:13;;;;;;;7.93;7.53;;;39.60;27.50;;;;;;5034101;28;20471;-85
2023/07/06 06:57:39;;;;;;;18.03;10.93;;;;;;;;;;5024440;28;20451;-86
2023/07/06 07:00:10;;;;;;;7.73;7.27;;;35.50;30.50;;;;;;5033334;28;20531;-86
2023/07/06 07:02:38;;;;;;;7.40;6.90;;;;;;;;;;5034593;28;20431;-85
2023/07/06 07:05:05;;;;;;;7.37;6.73;;;38.40;29.30;;;;;;5038452;28;20440;-86
2023/07/06 07:07:31;;;;;;;8.00;7.60;;;;;;;;;;5035890;28;20438;-85
2023/07/06 07:09:57;;;;;;;7.37;6.97;;;;;;;;;;5033461;28;20469;-88
2023/07/06 07:12:23;;;;;;;7.27;6.77;;;;;;;;;;5036424;28;20441;-87
2023/07/06 07:14:49;;;;;;;6.93;6.43;;;;;;;;;;5036830;28;20436;-86
2023/07/06 07:17:15;;;;;;;7.43;6.90;;;;;;;;;;5054884;28;21176;-85
2023/07/06 07:19:41;;;;;;;7.27;6.90;;;;;;;;;;5033790;28;20468;-87
2023/07/06 07:22:07;;;;;;;6.53;6.17;;;;;;;;;;5033426;28;20497;-86
2023/07/06 07:24:33;;;;;;;7.67;7.17;;;;;;;;;;5050804;28;20425;-87
2023/07/06 07:27:00;;;;;;;6.80;6.40;;;38.20;30.80;;;;;;5038574;28;20505;-84
2023/07/06 07:29:26;;;;;;;7.20;6.63;;;;;;;;;;4997677;28;1039321;-87
2023/07/06 07:31:52;;;;;;;6.43;6.13;;;;;;;;;;5036762;28;20184;-86
2023/07/06 07:34:19;;;;;;;8.97;8.27;;;36.10;30.80;;;;;;5039715;28;20438;-85
2023/07/06 07:36:45;;;;;;;7.27;6.67;;;;;;;;;;5042174;28;20440;-86
2023/07/06 07:39:11;;;;;;;7.27;6.40;;;;;;;;;;5057113;28;20465;-86
2023/07/06 07:41:42;;;;;;;6.77;6.37;;;;;;;;;;5042025;28;20969;-83
2023/07/06 07:44:08;;;;;;;6.73;6.30;;;;;;;;;;5042237;28;20427;-86
2023/07/06 07:46:35;;;;;;;24.25;10.35;;;;;;;;;;5053005;28;20439;-84
2023/07/06 07:49:01;;;;;;;6.97;6.47;;;35.40;32.60;;;;;;5038199;28;20694;-85
2023/07/06 07:51:27;;;;;;;7.03;6.53;;;36.20;33.60;;;;;;5037698;28;20453;-84
2023/07/06 07:53:54;;;;;;;7.23;6.83;;;37.10;32.40;;;;;;5035017;28;20433;-84
2023/07/06 07:56:23;;;;;;;7.67;7.27;;;37.40;31.30;;;;;;5035336;28;20449;-83
2023/07/06 07:58:49;;;;;;;7.57;7.17;;;38.40;30.10;;;;;;5025043;28;20993;-83
2023/07/06 08:01:17;;;;;;;8.27;7.77;;;40.30;29.50;;;;;;5029248;28;20552;-85
2023/07/06 08:03:43;;;;;;;6.83;6.43;;;40.00;28.20;;;;;;5035098;28;20170;-85
2023/07/06 08:06:11;;;;;;;7.33;6.93;;;39.20;29.80;;;;;;5036445;28;21006;-86
2023/07/06 08:08:38;;;;;;;7.30;6.80;;;38.10;30.40;;;;;;5033909;28;20262;-85
2023/07/06 08:11:15;;;;;;;7.83;7.27;;;38.40;29.60;;;;;;5033632;28;20811;-86
2023/07/06 08:13:44;;;;;;;7.23;6.90;;;38.10;29.80;;;;;;5031294;28;20498;-85
2023/07/06 08:16:12;;;;;;;6.97;6.57;;;36.60;30.10;;;;;;5034853;28;20809;-86
2023/07/06 08:18:41;;;;;;;7.30;6.80;;;35.50;32.60;;;;;;5035097;28;20466;-86
2023/07/06 08:21:08;;;;;;;8.00;7.60;;;34.60;32.50;;;;;;5033782;28;20547;-85
2023/07/06 08:23:34;;;;;;;8.60;7.67;;;34.60;33.40;;;;;;5031307;28;20463;-86
2023/07/06 08:26:03;;;;;;;7.23;6.73;;;35.50;33.20;;;;;;5035163;28;22178;-85
2023/07/06 08:28:31;;;;;;;7.57;7.17;;;34.10;34.20;;;;;;5036000;28;20215;-86
2023/07/06 08:31:01;;;;;;;7.20;6.37;;;33.30;33.80;;;;;;5035462;28;20449;-85
2023/07/06 08:33:27;;;;;;;6.80;6.40;;;33.50;35.60;;;;;;5035419;28;20437;-86
2023/07/06 08:35:53;;;;;;;6.90;6.20;;;32.10;35.50;;;;;;5040913;28;20440;-86
2023/07/06 08:38:19;;;;;;;7.07;6.47;;;34.20;37.40;;;;;;5038322;28;20571;-84
2023/07/06 08:40:51;;;;;;;5.37;5.00;;;32.90;35.20;;;;;;5034015;28;20464;-84
2023/07/06 08:43:26;;;;;;;7.00;4.17;;;30.40;35.50;;;;;;5031041;28;20447;-83
2023/07/06 08:46:00;;;;;;;4.30;3.90;;;27.30;41.60;;;;;;5028232;28;20512;-84
2023/07/06 08:48:27;;;;;;;8.07;4.07;;;28.40;41.90;;;;;;5030315;28;21281;-85
2023/07/06 08:50:57;;;;;;;4.93;3.97;;;28.90;41.90;;;;;;5033214;28;20442;-84
2023/07/06 08:53:28;;;;;;;5.17;3.23;;;27.30;43.20;;;;;;5036388;28;20981;-84
2023/07/06 08:55:57;;;;;;;3.50;3.20;;;25.80;46.80;;;;;;5035247;28;20449;-86
2023/07/06 08:58:33;;;;;;;3.67;3.10;;;26.40;48.90;;;;;;5030474;28;20463;-85
2023/07/06 09:01:14;;;;;;;3.20;2.87;;;28.90;46.80;;;;;;5026431;28;20463;-86
2023/07/06 09:03:46;;;;;;;6.50;3.57;;;29.50;42.40;;;;;;5032313;28;20442;-85
2023/07/06 09:06:18;;;;;;;3.70;3.40;;;29.60;42.00;;;;;;5033231;28;20445;-85
2023/07/06 09:08:45;;;;;;;4.00;3.60;;;;;;;;;;5036184;28;20451;-86
2023/07/06 09:11:14;;;;;;;4.47;4.07;;;31.60;41.20;;;;;;5038605;28;20435;-84
2023/07/06 09:13:46;;;;;;;4.83;4.10;;;33.90;38.00;;;;;;5034628;28;20558;-85
2023/07/06 09:16:15;;;;;;;5.67;5.33;;;;;;;;;;5036323;28;20474;-85
2023/07/06 09:18:42;;;;;;;6.70;6.20;;;36.00;33.60;;;;;;5032776;28;20458;-85
2023/07/06 09:21:08;;;;;;;7.10;6.53;;;36.00;34.20;;;;;;5027419;28;20466;-86
2023/07/06 09:23:34;;;;;;;6.70;6.30;;;;;;;;;;5033482;28;20442;-85
2023/07/06 09:26:06;;;;;;;7.10;6.70;;;37.10;33.60;;;;;;5033076;28;20208;-85
2023/07/06 09:28:32;;;;;;;7.50;7.00;;;;;;;;;;5032148;28;20479;-86
2023/07/06 09:31:23;;;;;;;6.10;5.50;;;34.00;34.50;;;;;;5028059;28;20478;-85
2023/07/06 09:33:50;;;;;;;5.43;5.13;;;34.30;35.30;;;;;;5033935;28;21144;-86
2023/07/06 09:36:23;;;;;;;4.27;3.80;;;29.90;37.20;;;;;;5033043;28;20550;-84
2023/07/06 09:38:50;;;;;;;6.13;3.53;;;28.00;42.00;;;;;;5031114;28;20517;-84
2023/07/06 09:41:24;;;;;;;4.03;3.63;;;27.20;43.30;;;;;;5033145;28;20467;-84
2023/07/06 09:43:57;;;;;;;4.33;2.93;;;26.60;45.10;;;;;;5034838;28;20483;-84
2023/07/06 09:46:27;;;;;;;11.83;3.00;;;28.10;44.70;;;;;;5040810;28;20434;-85
2023/07/06 09:48:53;;;;;;;4.80;3.20;;;28.70;43.30;;;;;;5032887;28;20994;-85
2023/07/06 09:51:32;;;;;;;3.80;3.50;;;28.00;44.40;;;;;;5032926;28;20505;-86
2023/07/06 09:54:06;;;;;;;5.57;3.60;;;29.00;45.10;;;;;;5033022;28;20197;-86
2023/07/06 09:56:32;;;;;;;8.53;7.87;;;31.00;40.90;;;;;;5033451;28;20442;-86
2023/07/06 09:58:59;;;;;;;7.23;4.97;;;32.20;39.50;;;;;;5031857;28;20473;-85
2023/07/06 10:01:49;;;;;;;4.17;3.87;;;36.80;39.90;;;;;;5026905;28;20551;-85
2023/07/06 10:04:22;;;;;;;4.10;3.90;;;29.60;36.90;;;;;;5028734;28;20424;-84
2023/07/06 10:07:11;;;;;;;7.97;5.40;;;29.50;37.30;;;;;;5023256;28;20427;-85
2023/07/06 10:09:42;;;;;;;3.93;3.50;;;27.90;40.80;;;;;;5032759;28;20488;-86
2023/07/06 10:12:17;;;;;;;3.23;2.97;;;26.40;42.70;;;;;;5036598;28;20498;-85
2023/07/06 10:14:49;;;;;;;4.77;3.83;;;26.80;44.10;;;;;;5035632;28;20430;-86
2023/07/06 10:17:30;;;;;;;3.90;2.70;;;25.90;45.60;;;;;;5028586;28;20503;-83
2023/07/06 10:20:08;;;;;;;4.63;3.17;;;27.00;46.00;;;;;;5031780;28;20479;-85
2023/07/06 10:23:04;;;;;;;4.00;3.40;;;28.50;42.80;;;;;;5043508;28;20463;-84
2023/07/06 10:25:33;;;;;;;4.80;4.03;;;29.50;40.00;;;;;;5027256;28;20436;-86
2023/07/06 10:28:10;;;;;;;4.20;3.90;;;30.20;38.00;;;;;;5025759;28;20528;-86
2023/07/06 10:30:41;;;;;;;4.13;3.83;;;30.50;38.70;;;;;;5031360;28;20514;-86
2023/07/06 10:33:24;;;;;;;10.20;3.33;;;29.00;38.80;;;;;;5032426;28;20443;-85
2023/07/06 10:35:52;;;;;;;3.90;3.57;;;29.10;40.40;;;;;;5027476;28;20438;-85
2023/07/06 10:38:19;;;;;;;3.90;2.77;;;27.90;41.60;;;;;;5024863;28;20452;-85
2023/07/06 10:41:10;;;;;;;3.93;3.10;;;26.60;43.60;;;;;;5027525;28;20484;-84
2023/07/06 10:43:40;;;;;;;4.57;2.87;;;25.80;45.20;;;;;;5022296;28;20440;-83
2023/07/06 10:46:33;;;;;;;4.00;3.13;;;25.50;46.10;;;;;;5026256;28;20427;-84
2023/07/06 10:49:20;;;;;;;3.23;3.00;;;25.40;44.70;;;;;;5028895;28;21840;-85
2023/07/06 10:51:51;;;;;;;3.73;2.90;;;25.60;46.10;;;;;;5038266;28;20435;-86
2023/07/06 10:54:32;;;;;;;5.00;3.33;;;26.10;46.80;;;;;;5023312;28;20444;-85
2023/07/06 10:57:02;;;;;;;2.90;2.63;;;25.70;45.70;;;;;;5035441;28;20439;-86
2023/07/06 10:59:37;;;;;;;4.67;3.03;;;25.70;44.40;;;;;;5032985;28;20457;-85
2023/07/06 11:02:20;;;;;;;4.07;3.10;;;25.60;45.30;;;;;;5025161;28;20472;-85
2023/07/06 11:05:08;;;;;;;7.07;3.17;;;25.60;43.50;;;;;;5034271;28;20491;-85
2023/07/06 11:07:44;;;;;;;4.20;2.57;;;25.20;45.40;;;;;;5031389;28;20894;-84
2023/07/06 11:10:20;;;;;;;5.03;3.17;;;24.70;45.30;;;;;;5030422;28;20443;-85
2023/07/06 11:13:01;;;;;;;3.80;3.07;;;24.80;47.90;;;;;;5029955;28;20429;-85
2023/07/06 11:15:35;;;;;;;4.03;2.60;;;25.50;48.00;;;;;;5047964;28;20492;-86
2023/07/06 11:18:28;;;;;;;3.70;3.30;;;26.60;45.50;;;;;;5033198;28;20454;-85
2023/07/06 11:21:37;;;;;;;2.87;2.63;;;26.70;45.40;;;;;;5025282;28;20966;-86
2023/07/06 11:24:07;;;;;;;3.40;2.77;;;26.00;45.00;;;;;;5031387;28;20432;-85
2023/07/06 11:26:48;;;;;;;3.17;2.87;;;24.90;45.80;;;;;;5035331;28;20444;-83
2023/07/06 11:29:18;;;;;;;3.90;3.50;;;24.70;47.30;;;;;;5033388;28;21487;-85
2023/07/06 11:31:59;;;;;;;3.43;2.73;;;25.00;47.60;;;;;;5036660;28;20446;-85
2023/07/06 11:34:43;;;;;;;3.37;2.70;;;25.10;46.20;;;;;;5031535;28;20734;-84
2023/07/06 11:37:14;;;;;;;7.43;2.97;;;25.10;47.00;;;;;;5048411;28;20436;-86
2023/07/06 11:39:57;;;;;;;3.30;3.00;;;25.70;47.80;;;;;;5054932;28;21259;-86
2023/07/06 11:42:42;;;;;;;3.43;2.50;;;25.80;44.90;;;;;;5039799;28;20505;-87
2023/07/06 11:45:20;;;;;;;9.17;3.40;;;26.10;45.10;;;;;;5036759;28;20444;-86
2023/07/06 11:48:14;;;;;;;4.23;2.57;;;23.10;43.30;;;;;;5034139;28;20444;-85
2023/07/06 11:50:40;;;;;;;3.67;2.70;;;25.40;45.50;;;;;;5035611;28;20433;-86
2023/07/06 11:53:29;;;;;;;3.27;2.97;;;25.50;44.70;;;;;;5037896;28;20445;-84
2023/07/06 11:56:05;;;;;;;2.67;2.40;;;25.90;46.30;;;;;;5041178;28;20185;-86
2023/07/06 11:58:43;;;;;;;4.07;3.03;;;26.10;45.60;;;;;;5030067;28;20463;-85
2023/07/06 12:01:20;;;;;;;3.70;3.10;;;26.40;46.00;;;;;;5023585;28;20467;-85
2023/07/06 12:03:47;;;;;;;5.53;2.67;;;26.20;45.10;;;;;;5044815;28;20534;-85
2023/07/06 12:06:17;;;;;;;13.30;3.07;;;26.50;44.20;;;;;;5032720;28;21535;-85
2023/07/06 12:08:44;;;;;;;3.10;2.50;;;26.50;43.80;;;;;;5028499;28;20827;-85
2023/07/06 12:11:19;;;;;;;5.17;3.20;;;26.40;44.70;;;;;;5035462;28;20443;-84
2023/07/06 12:13:52;;;;;;;5.60;2.47;;;25.70;45.00;;;;;;5032239;28;20437;-85
2023/07/06 12:16:27;;;;;;;3.43;2.87;;;26.10;45.30;;;;;;5030953;28;20433;-85
2023/07/06 12:18:58;;;;;;;4.33;3.40;;;26.10;45.80;;;;;;5035181;28;20871;-85
2023/07/06 12:21:29;;;;;;;5.73;3.00;;;26.30;45.10;;;;;;5034381;28;20545;-85
2023/07/06 12:23:59;;;;;;;3.90;2.77;;;25.70;44.50;;;;;;5035512;28;20446;-85
2023/07/06 12:26:29;;;;;;;4.73;3.20;;;25.40;45.20;;;;;;5026576;28;20439;-84
2023/07/06 12:28:59;;;;;;;3.57;2.77;;;25.00;45.20;;;;;;5036630;28;20478;-85
2023/07/06 12:31:27;;;;;;;3.60;2.97;;;24.80;45.50;;;;;;5037091;28;20546;-86
2023/07/06 12:34:00;;;;;;;5.10;4.03;;;25.30;45.40;;;;;;5037588;28;20494;-85
2023/07/06 12:36:31;;;;;;;3.83;2.93;;;26.00;43.70;;;;;;5031648;28;20563;-85
2023/07/06 12:39:00;;;;;;;5.60;2.60;;;26.40;43.20;;;;;;5032691;28;20470;-85
2023/07/06 12:41:26;;;;;;;3.60;2.87;;;26.40;43.30;;;;;;5027814;28;20471;-86
2023/07/06 12:43:55;;;;;;;3.30;2.47;;;26.10;44.10;;;;;;5038025;28;20445;-86
2023/07/06 12:46:21;;;;;;;2.90;2.63;;;;;;;;;;5030990;28;20183;-86
2023/07/06 12:48:54;;;;;;;6.27;3.20;;;25.80;44.20;;;;;;5032654;28;20451;-85
2023/07/06 12:51:25;;;;;;;2.80;2.57;;;25.90;44.30;;;;;;5033747;28;20437;-86
2023/07/06 12:53:51;;;;;;;4.20;3.30;;;26.20;44.40;;;;;;5032439;28;20495;-85
2023/07/06 12:56:25;;;;;;;6.40;3.20;;;26.20;44.60;;;;;;5030678;28;20955;-84
2023/07/06 12:58:57;;;;;;;3.87;3.27;;;25.10;44.10;;;;;;5039147;28;20565;-86
2023/07/06 13:01:34;;;;;;;3.80;2.70;;;25.40;46.20;;;;;;5027828;28;20468;-86
2023/07/06 13:04:07;;;;;;;4.73;2.40;;;26.10;45.70;;;;;;5033528;28;20444;-85
2023/07/06 13:06:43;;;;;;;4.97;3.70;;;25.80;43.70;;;;;;5035102;28;20423;-86
2023/07/06 13:09:17;;;;;;;3.27;2.87;;;26.10;45.10;;;;;;5047167;28;20554;-85
2023/07/06 13:11:46;;;;;;;3.70;2.63;;;26.30;44.60;;;;;;5038646;28;20474;-85
2023/07/06 13:14:17;;;;;;;4.20;2.57;;;25.80;44.50;;;;;;5036543;28;20435;-86
2023/07/06 13:16:45;;;;;;;5.20;3.77;;;25.80;44.20;;;;;;5036168;28;20560;-87
2023/07/06 13:19:12;;;;;;;4.30;2.83;;;25.80;44.20;;;;;;5028058;28;21191;-85
2023/07/06 13:21:40;;;;;;;10.87;3.40;;;25.80;45.00;;;;;;5032118;28;20552;-86
2023/07/06 13:24:11;;;;;;;5.10;3.20;;;25.50;44.50;;;;;;5031316;28;21282;-85
2023/07/06 13:26:37;;;;;;;3.57;2.97;;;;;;;;;;5031848;28;20443;-86
2023/07/06 13:29:05;;;;;;;3.40;3.10;;;25.60;44.90;;;;;;5025747;28;20472;-85
2023/07/06 13:31:31;;;;;;;3.73;3.00;;;;;;;;;;5025266;28;20440;-86
2023/07/06 13:33:57;;;;;;;3.70;3.10;;;25.90;43.40;;;;;;5032461;28;20464;-85
2023/07/06 13:36:25;;;;;;;5.63;2.90;;;25.80;44.30;;;;;;5032314;28;20551;-86
2023/07/06 13:38:51;;;;;;;3.83;3.30;;;25.60;44.40;;;;;;5037178;28;20209;-85